createdAt,value
2023-01-18T00:01:23.729Z,7.33
2023-01-18T00:03:53.007Z,6.30
2023-01-18T00:06:21.289Z,7.03
2023-01-18T00:08:51.011Z,6.23
2023-01-18T00:11:19.348Z,6.90
2023-01-18T00:13:50.860Z,8.60
2023-01-18T00:16:21.157Z,7.13
2023-01-18T00:18:52.244Z,7.40
2023-01-18T00:21:20.616Z,7.23
2023-01-18T00:23:50.254Z,7.87
2023-01-18T00:26:18.510Z,7.23
2023-01-18T00:28:47.348Z,8.03
2023-01-18T00:31:17.766Z,8.63
2023-01-18T00:33:46.977Z,8.20
2023-01-18T00:36:16.517Z,9.33
2023-01-18T00:38:44.888Z,8.53
2023-01-18T00:41:14.461Z,7.13
2023-01-18T00:43:41.729Z,8.30
2023-01-18T00:46:11.755Z,9.67
2023-01-18T00:48:41.259Z,9.20
2023-01-18T00:51:11.415Z,8.70
2023-01-18T00:53:40.044Z,10.30
2023-01-18T00:56:08.893Z,11.50
2023-01-18T00:58:38.980Z,11.53
2023-01-18T01:01:08.806Z,13.33
2023-01-18T01:03:51.552Z,12.97
2023-01-18T01:06:47.187Z,12.73
2023-01-18T01:09:18.180Z,10.43
2023-01-18T01:12:00.682Z,10.23
2023-01-18T01:14:47.773Z,10.00
2023-01-18T01:17:33.167Z,10.70
2023-01-18T01:20:18.524Z,12.43
2023-01-18T01:23:04.114Z,12.90
2023-01-18T01:25:49.450Z,10.40
2023-01-18T01:28:17.935Z,10.53
2023-01-18T01:30:47.572Z,10.17
2023-01-18T01:33:16.177Z,10.60
2023-01-18T01:35:44.507Z,10.43
2023-01-18T01:38:12.764Z,10.23
2023-01-18T01:40:40.937Z,10.63
2023-01-18T01:43:13.758Z,10.13
2023-01-18T01:45:42.131Z,11.03
2023-01-18T01:48:12.477Z,12.47
2023-01-18T01:50:41.650Z,11.07
2023-01-18T01:53:11.317Z,11.60
2023-01-18T01:55:41.781Z,10.93
2023-01-18T01:58:14.282Z,10.53
2023-01-18T02:00:42.744Z,10.63
2023-01-18T02:03:15.903Z,9.97
2023-01-18T02:05:47.026Z,9.67
2023-01-18T02:08:22.461Z,9.70
2023-01-18T02:10:50.983Z,9.50
2023-01-18T02:13:20.615Z,9.80
2023-01-18T02:15:56.770Z,9.27
2023-01-18T02:18:30.557Z,8.57
2023-01-18T02:21:17.437Z,10.10
2023-01-18T02:24:18.584Z,9.00
2023-01-18T02:27:05.787Z,10.60
2023-01-18T02:29:54.579Z,10.57
2023-01-18T02:32:31.401Z,9.27
2023-01-18T02:35:08.927Z,9.63
2023-01-18T02:37:45.764Z,8.60
2023-01-18T02:40:22.429Z,9.67
2023-01-18T02:43:08.212Z,10.63
2023-01-18T02:45:59.738Z,9.80
2023-01-18T02:48:33.671Z,10.10
2023-01-18T02:51:02.012Z,10.20
2023-01-18T02:53:31.382Z,9.33
2023-01-18T02:56:03.465Z,9.70
2023-01-18T02:58:35.322Z,8.60
2023-01-18T03:01:08.267Z,10.00
2023-01-18T03:03:36.868Z,9.00
2023-01-18T03:06:09.060Z,9.23
2023-01-18T03:08:42.512Z,8.83
2023-01-18T03:11:14.246Z,8.47
2023-01-18T03:13:56.722Z,7.73
2023-01-18T03:16:32.494Z,8.43
2023-01-18T03:19:05.876Z,8.00
2023-01-18T03:21:42.899Z,6.30
2023-01-18T03:24:11.597Z,7.87
2023-01-18T03:26:44.468Z,8.10
2023-01-18T03:29:32.330Z,7.40
2023-01-18T03:32:22.561Z,8.67
2023-01-18T03:34:56.050Z,8.70
2023-01-18T03:37:30.593Z,9.53
2023-01-18T03:40:03.577Z,10.47
2023-01-18T03:42:36.813Z,10.00
2023-01-18T03:45:10.750Z,10.70
2023-01-18T03:47:40.839Z,10.63
2023-01-18T03:50:10.760Z,10.50
2023-01-18T03:52:43.424Z,10.97
2023-01-18T03:55:17.012Z,10.63
2023-01-18T03:57:50.244Z,10.80
2023-01-18T04:00:19.345Z,11.00
2023-01-18T04:02:50.856Z,9.80
2023-01-18T04:05:19.636Z,11.23
2023-01-18T04:07:48.118Z,10.93
2023-01-18T04:10:16.384Z,10.33
2023-01-18T04:12:44.635Z,10.20
2023-01-18T04:15:13.229Z,9.73
2023-01-18T04:17:41.492Z,9.93
2023-01-18T04:20:12.318Z,10.07
2023-01-18T04:22:40.524Z,10.40
2023-01-18T04:25:09.481Z,10.73
2023-01-18T04:27:37.621Z,10.27
2023-01-18T04:30:06.740Z,11.53
2023-01-18T04:32:34.876Z,9.73
2023-01-18T04:35:03.217Z,10.20
2023-01-18T04:37:34.184Z,10.27
2023-01-18T04:40:02.513Z,9.10
2023-01-18T04:42:30.686Z,9.10
2023-01-18T04:44:59.872Z,9.30
2023-01-18T04:47:29.597Z,8.40
2023-01-18T04:49:58.574Z,7.97
2023-01-18T04:52:26.968Z,8.30
2023-01-18T04:54:56.699Z,9.90
2023-01-18T04:57:25.208Z,10.00
2023-01-18T04:59:53.331Z,12.10
2023-01-18T05:02:21.648Z,11.30
2023-01-18T05:04:49.859Z,11.50
2023-01-18T05:07:18.047Z,13.87
2023-01-18T05:09:48.384Z,12.97
2023-01-18T05:12:17.985Z,15.13
2023-01-18T05:14:46.184Z,14.07
2023-01-18T05:17:14.425Z,13.80
2023-01-18T05:19:42.765Z,16.40
2023-01-18T05:22:10.988Z,16.77
2023-01-18T05:24:39.257Z,15.17
2023-01-18T05:27:07.474Z,16.27
2023-01-18T05:29:37.191Z,14.77
2023-01-18T05:32:06.372Z,16.40
2023-01-18T05:34:34.717Z,16.33
2023-01-18T05:37:04.524Z,15.90
2023-01-18T05:39:32.724Z,16.53
2023-01-18T05:42:00.979Z,14.67
2023-01-18T05:44:29.123Z,14.60
2023-01-18T05:46:59.276Z,14.57
2023-01-18T05:49:27.488Z,14.37
2023-01-18T05:51:55.681Z,13.40
2023-01-18T05:54:23.924Z,12.90
2023-01-18T05:56:52.139Z,12.10
2023-01-18T05:59:20.308Z,12.73
2023-01-18T06:01:48.517Z,11.87
2023-01-18T06:04:18.169Z,12.20
2023-01-18T06:06:46.402Z,12.47
2023-01-18T06:09:14.957Z,13.57
2023-01-18T06:11:43.540Z,13.20
2023-01-18T06:14:11.706Z,12.50
2023-01-18T06:16:39.955Z,14.07
2023-01-18T06:19:08.250Z,14.17
2023-01-18T06:21:37.745Z,13.37
2023-01-18T06:24:06.432Z,13.23
2023-01-18T06:26:35.011Z,11.97
2023-01-18T06:29:03.301Z,11.07
2023-01-18T06:31:31.515Z,10.40
2023-01-18T06:33:59.705Z,9.77
2023-01-18T06:36:29.241Z,10.13
2023-01-18T06:38:58.764Z,9.53
2023-01-18T06:41:29.693Z,9.23
2023-01-18T06:43:58.055Z,8.87
2023-01-18T06:46:28.540Z,8.70
2023-01-18T06:48:56.845Z,7.67
2023-01-18T06:51:25.172Z,8.60
2023-01-18T06:53:53.262Z,8.57
2023-01-18T06:56:22.920Z,8.50
2023-01-18T06:58:51.986Z,8.17
2023-01-18T07:01:20.304Z,8.27
2023-01-18T07:03:48.501Z,7.60
2023-01-18T07:06:16.719Z,8.17
2023-01-18T07:08:44.856Z,8.07
2023-01-18T07:11:14.481Z,7.70
2023-01-18T07:13:44.153Z,8.43
2023-01-18T07:16:17.491Z,7.23
2023-01-18T07:18:46.816Z,7.27
2023-01-18T07:21:16.141Z,8.40
2023-01-18T07:23:44.833Z,7.60
2023-01-18T07:26:17.011Z,9.67
2023-01-18T07:28:47.393Z,9.40
2023-01-18T07:31:16.490Z,9.47
2023-01-18T07:33:44.758Z,9.00
2023-01-18T07:36:14.060Z,8.87
2023-01-18T07:38:42.665Z,8.87
2023-01-18T07:41:14.304Z,8.60
2023-01-18T07:43:44.728Z,8.27
2023-01-18T07:46:18.527Z,8.17
2023-01-18T07:48:47.814Z,8.57
2023-01-18T07:51:16.996Z,8.60
2023-01-18T07:53:45.756Z,8.90
2023-01-18T07:56:15.580Z,8.20
2023-01-18T07:58:44.019Z,7.90
2023-01-18T08:01:16.079Z,8.47
2023-01-18T08:03:45.606Z,8.57
2023-01-18T08:06:13.886Z,8.43
2023-01-18T08:08:42.059Z,9.30
2023-01-18T08:11:10.832Z,7.83
2023-01-18T08:13:39.674Z,7.47
2023-01-18T08:16:11.171Z,7.47
2023-01-18T08:18:41.626Z,7.53
2023-01-18T08:21:11.762Z,7.37
2023-01-18T08:23:40.417Z,7.07
2023-01-18T08:26:09.820Z,5.60
2023-01-18T08:28:38.055Z,6.20
2023-01-18T08:31:09.646Z,6.37
2023-01-18T08:33:41.556Z,5.40
2023-01-18T08:36:14.360Z,6.40
2023-01-18T08:38:42.612Z,5.23
2023-01-18T08:41:10.984Z,5.53
2023-01-18T08:43:39.162Z,6.37
2023-01-18T08:46:07.610Z,7.13
2023-01-18T08:48:36.272Z,7.40
2023-01-18T08:51:05.991Z,6.73
2023-01-18T08:53:34.243Z,6.70
2023-01-18T08:56:05.746Z,6.83
2023-01-18T08:58:34.506Z,5.90
2023-01-18T09:01:06.241Z,6.10
2023-01-18T09:03:35.255Z,6.33
2023-01-18T09:06:05.799Z,6.93
2023-01-18T09:08:33.947Z,6.80
2023-01-18T09:11:03.494Z,7.70
2023-01-18T09:13:31.964Z,8.47
2023-01-18T09:16:00.884Z,7.53
2023-01-18T09:18:30.147Z,8.60
2023-01-18T09:20:58.398Z,8.17
2023-01-18T09:23:28.062Z,7.70
2023-01-18T09:26:03.261Z,7.70
2023-01-18T09:28:31.540Z,8.30
2023-01-18T09:31:02.197Z,7.13
2023-01-18T09:33:37.673Z,6.77
2023-01-18T09:36:09.864Z,7.37
2023-01-18T09:38:41.297Z,7.93
2023-01-18T09:41:21.663Z,6.77
2023-01-18T09:43:52.143Z,6.73
2023-01-18T09:46:22.140Z,7.43
2023-01-18T09:48:55.625Z,6.53
2023-01-18T09:51:28.958Z,6.70
2023-01-18T09:54:09.286Z,6.20
2023-01-18T09:56:44.368Z,6.40
2023-01-18T09:59:22.978Z,7.00
2023-01-18T10:01:54.983Z,6.90
2023-01-18T10:04:30.067Z,5.67
2023-01-18T10:07:01.683Z,6.10
2023-01-18T10:09:35.217Z,6.80
2023-01-18T10:12:08.276Z,6.50
2023-01-18T10:14:47.908Z,5.33
2023-01-18T10:17:22.963Z,5.70
2023-01-18T10:19:51.937Z,4.73
2023-01-18T10:22:25.446Z,5.70
2023-01-18T10:25:02.602Z,5.53
2023-01-18T10:27:55.378Z,5.80
2023-01-18T10:30:46.508Z,7.10
2023-01-18T10:33:21.739Z,5.70
2023-01-18T10:35:51.976Z,5.03
2023-01-18T10:38:23.063Z,4.13
2023-01-18T10:40:57.217Z,4.37
2023-01-18T10:43:27.597Z,5.23
2023-01-18T10:45:56.555Z,4.60
2023-01-18T10:48:31.078Z,3.97
2023-01-18T10:51:01.422Z,5.70
2023-01-18T10:53:32.526Z,5.63
2023-01-18T10:56:08.380Z,6.73
2023-01-18T10:58:45.330Z,5.80
2023-01-18T11:01:17.676Z,6.47
2023-01-18T11:03:48.271Z,7.40
2023-01-18T11:06:17.303Z,6.30
2023-01-18T11:08:45.617Z,6.40
2023-01-18T11:11:49.032Z,7.10
2023-01-18T11:14:29.651Z,6.53
2023-01-18T11:17:02.782Z,8.90
2023-01-18T11:19:31.209Z,8.03
2023-01-18T11:21:59.393Z,8.60
2023-01-18T11:24:31.172Z,9.50
2023-01-18T11:27:02.926Z,9.97
2023-01-18T11:29:33.827Z,8.00
2023-01-18T11:32:05.236Z,7.00
2023-01-18T11:34:36.993Z,8.43
2023-01-18T11:37:06.260Z,8.10
2023-01-18T11:39:35.917Z,9.87
2023-01-18T11:42:22.648Z,8.07
2023-01-18T11:45:02.276Z,8.17
2023-01-18T11:47:37.161Z,9.23
2023-01-18T11:50:21.990Z,10.20
2023-01-18T11:52:54.899Z,10.77
2023-01-18T11:55:32.185Z,9.70
2023-01-18T11:58:02.286Z,10.07
2023-01-18T12:00:45.929Z,12.10
2023-01-18T12:03:40.197Z,10.80
2023-01-18T12:06:18.997Z,10.43
2023-01-18T12:09:04.740Z,12.23
2023-01-18T12:11:50.158Z,12.30
2023-01-18T12:14:41.555Z,10.87
2023-01-18T12:17:30.487Z,10.87
2023-01-18T12:20:08.394Z,9.70
2023-01-18T12:23:22.447Z,10.57
2023-01-18T12:26:11.701Z,11.30
2023-01-18T12:28:52.299Z,12.80
2023-01-18T12:31:35.149Z,12.17
2023-01-18T12:34:13.555Z,11.63
2023-01-18T12:37:10.715Z,10.97
2023-01-18T12:39:54.684Z,11.00
2023-01-18T12:42:35.767Z,11.57
2023-01-18T12:45:16.917Z,13.97
2023-01-18T12:47:55.005Z,12.80
2023-01-18T12:50:27.563Z,12.37
2023-01-18T12:53:00.994Z,12.73
2023-01-18T12:55:32.984Z,12.00
2023-01-18T12:58:03.105Z,11.70
2023-01-18T13:00:36.457Z,11.30
2023-01-18T13:03:11.557Z,11.53
2023-01-18T13:05:51.120Z,11.53
2023-01-18T13:08:29.157Z,11.90
2023-01-18T13:11:06.720Z,13.27
2023-01-18T13:13:36.220Z,13.53
2023-01-18T13:16:15.237Z,12.40
2023-01-18T13:18:53.122Z,11.20
2023-01-18T13:21:33.676Z,11.20
2023-01-18T13:24:11.347Z,10.27
2023-01-18T13:26:40.239Z,11.00
2023-01-18T13:29:16.720Z,11.43
2023-01-18T13:31:46.137Z,11.10
2023-01-18T13:34:32.252Z,11.23
2023-01-18T13:37:14.447Z,10.90
2023-01-18T13:39:48.597Z,11.20
2023-01-18T13:42:35.014Z,10.17
2023-01-18T13:45:21.890Z,10.23
2023-01-18T13:48:00.507Z,10.00
2023-01-18T13:50:47.364Z,10.57
2023-01-18T13:53:26.918Z,10.53
2023-01-18T13:56:23.094Z,11.73
2023-01-18T13:58:57.614Z,10.80
2023-01-18T14:01:32.630Z,12.17
2023-01-18T14:04:20.181Z,10.70
2023-01-18T14:06:50.868Z,10.40
2023-01-18T14:09:29.456Z,11.40
2023-01-18T14:11:58.835Z,11.83
2023-01-18T14:14:30.370Z,11.70
2023-01-18T14:17:07.194Z,12.47
2023-01-18T14:20:02.733Z,14.07
2023-01-18T14:22:43.896Z,14.03
2023-01-18T14:25:39.010Z,13.53
2023-01-18T14:28:13.456Z,15.77
2023-01-18T14:30:50.613Z,14.00
2023-01-18T14:33:27.319Z,12.20
2023-01-18T14:35:58.870Z,12.00
2023-01-18T14:38:31.604Z,11.40
2023-01-18T14:41:26.269Z,11.33
2023-01-18T14:43:55.282Z,11.20
2023-01-18T14:46:27.788Z,11.10
2023-01-18T14:48:58.519Z,10.80
2023-01-18T14:51:29.921Z,10.70
2023-01-18T14:54:03.159Z,11.73
2023-01-18T14:56:34.884Z,10.57
2023-01-18T14:59:17.765Z,10.03
2023-01-18T15:01:53.972Z,8.10
2023-01-18T15:04:24.442Z,5.93
2023-01-18T15:06:55.399Z,4.43
2023-01-18T15:09:28.252Z,4.73
2023-01-18T15:12:00.664Z,4.57
2023-01-18T15:14:33.651Z,5.20
2023-01-18T15:17:03.280Z,5.10
2023-01-18T15:19:36.498Z,4.80
2023-01-18T15:22:07.616Z,5.20
2023-01-18T15:24:41.392Z,5.63
2023-01-18T15:27:14.126Z,4.87
2023-01-18T15:29:47.677Z,6.40
2023-01-18T15:32:21.704Z,6.33
2023-01-18T15:34:52.141Z,6.23
2023-01-18T15:37:25.415Z,5.83
2023-01-18T15:40:02.579Z,5.60
2023-01-18T15:42:34.329Z,5.80
2023-01-18T15:45:02.686Z,5.40
2023-01-18T15:47:36.731Z,6.13
2023-01-18T15:50:16.657Z,5.20
2023-01-18T15:52:48.672Z,6.00
2023-01-18T15:55:24.099Z,5.63
2023-01-18T15:58:00.074Z,6.60
2023-01-18T16:00:31.316Z,5.80
2023-01-18T16:03:00.052Z,6.03
2023-01-18T16:05:29.369Z,6.33
2023-01-18T16:08:19.393Z,6.03
2023-01-18T16:10:52.325Z,7.27
2023-01-18T16:13:40.359Z,10.23
2023-01-18T16:16:22.442Z,12.80
2023-01-18T16:19:00.006Z,15.73
2023-01-18T16:21:40.439Z,11.77
2023-01-18T16:24:17.828Z,13.33
2023-01-18T16:26:47.948Z,12.93
2023-01-18T16:29:16.324Z,15.40
2023-01-18T16:31:45.618Z,18.17
2023-01-18T16:34:25.523Z,18.30
2023-01-18T16:36:54.729Z,16.13
2023-01-18T16:39:24.411Z,19.80
2023-01-18T16:41:57.982Z,23.13
2023-01-18T16:44:27.633Z,25.33
2023-01-18T16:46:55.978Z,24.90
2023-01-18T16:49:26.865Z,23.53
2023-01-18T16:51:55.945Z,24.30
2023-01-18T16:54:24.246Z,21.67
2023-01-18T16:56:52.524Z,23.33
2023-01-18T16:59:23.173Z,21.70
2023-01-18T17:01:52.080Z,23.47
2023-01-18T17:04:20.298Z,22.97
2023-01-18T17:06:51.470Z,23.37
2023-01-18T17:09:25.001Z,22.60
2023-01-18T17:11:53.772Z,22.50
2023-01-18T17:14:23.646Z,22.87
2023-01-18T17:16:52.058Z,22.93
2023-01-18T17:19:22.404Z,21.90
2023-01-18T17:21:51.747Z,22.50
2023-01-18T17:24:22.130Z,21.67
2023-01-18T17:26:50.557Z,20.90
2023-01-18T17:29:21.280Z,22.53
2023-01-18T17:31:53.007Z,20.23
2023-01-18T17:34:27.806Z,20.27
2023-01-18T17:36:57.760Z,22.47
2023-01-18T17:39:37.438Z,23.67
2023-01-18T17:42:19.158Z,26.90
2023-01-18T17:45:02.574Z,25.87
2023-01-18T17:47:33.289Z,30.90
2023-01-18T17:50:03.637Z,23.37
2023-01-18T17:52:31.818Z,18.73
2023-01-18T17:55:00.143Z,19.07
2023-01-18T17:57:28.809Z,20.30
2023-01-18T17:59:57.002Z,17.90
2023-01-18T18:02:25.900Z,18.33
2023-01-18T18:04:55.531Z,17.50
2023-01-18T18:07:23.692Z,18.37
2023-01-18T18:09:56.673Z,19.00
2023-01-18T18:12:24.885Z,22.33
2023-01-18T18:14:55.833Z,25.20
2023-01-18T18:17:24.710Z,22.70
2023-01-18T18:19:52.904Z,22.53
2023-01-18T18:22:22.702Z,19.80
2023-01-18T18:24:51.208Z,19.80
2023-01-18T18:27:20.021Z,19.50
2023-01-18T18:29:48.525Z,23.33
2023-01-18T18:32:17.204Z,24.30
2023-01-18T18:34:45.446Z,29.30
2023-01-18T18:37:15.177Z,27.57
2023-01-18T18:39:44.710Z,24.07
2023-01-18T18:42:13.047Z,25.40
2023-01-18T18:44:41.344Z,23.97
2023-01-18T18:47:10.009Z,23.77
2023-01-18T18:49:38.230Z,23.23
2023-01-18T18:52:06.403Z,23.90
2023-01-18T18:54:34.608Z,19.33
2023-01-18T18:57:04.460Z,18.97
2023-01-18T18:59:32.701Z,19.07
2023-01-18T19:02:00.928Z,20.20
2023-01-18T19:04:29.109Z,21.97
2023-01-18T19:06:57.282Z,25.07
2023-01-18T19:09:25.500Z,24.37
2023-01-18T19:11:55.313Z,19.17
2023-01-18T19:14:26.445Z,16.47
2023-01-18T19:16:54.831Z,13.53
2023-01-18T19:19:24.297Z,11.73
2023-01-18T19:21:53.506Z,12.50
2023-01-18T19:24:21.745Z,14.00
2023-01-18T19:26:49.995Z,11.60
2023-01-18T19:29:18.387Z,12.37
2023-01-18T19:31:47.935Z,11.90
2023-01-18T19:34:16.551Z,9.87
2023-01-18T19:36:44.781Z,11.70
2023-01-18T19:39:21.901Z,11.50
2023-01-18T19:41:51.159Z,10.60
2023-01-18T19:44:19.534Z,10.27
2023-01-18T19:46:49.077Z,11.47
2023-01-18T19:49:20.017Z,10.00
2023-01-18T19:51:48.349Z,10.30
2023-01-18T19:54:16.530Z,12.13
2023-01-18T19:56:44.796Z,11.40
2023-01-18T19:59:14.521Z,11.93
2023-01-18T20:01:43.098Z,9.80
2023-01-18T20:04:13.333Z,11.27
2023-01-18T20:06:43.494Z,10.90
2023-01-18T20:09:19.631Z,10.73
2023-01-18T20:11:49.621Z,11.30
2023-01-18T20:14:18.391Z,11.10
2023-01-18T20:16:46.878Z,10.80
2023-01-18T20:19:17.615Z,11.03
2023-01-18T20:21:46.038Z,11.40
2023-01-18T20:24:14.163Z,11.40
2023-01-18T20:26:42.382Z,11.57
2023-01-18T20:29:11.107Z,11.60
2023-01-18T20:31:41.093Z,10.43
2023-01-18T20:34:11.252Z,11.30
2023-01-18T20:36:40.881Z,12.10
2023-01-18T20:39:10.334Z,12.03
2023-01-18T20:41:38.590Z,10.40
2023-01-18T20:44:07.167Z,11.00
2023-01-18T20:46:35.448Z,11.27
2023-01-18T20:49:03.941Z,10.27
2023-01-18T20:51:32.338Z,11.60
2023-01-18T20:54:02.230Z,11.00
2023-01-18T20:56:32.018Z,10.10
2023-01-18T20:59:00.198Z,8.97
2023-01-18T21:01:32.636Z,10.17
2023-01-18T21:04:02.786Z,10.53
2023-01-18T21:06:34.341Z,9.40
2023-01-18T21:09:04.492Z,10.10
2023-01-18T21:11:32.999Z,9.63
2023-01-18T21:14:01.209Z,10.03
2023-01-18T21:16:29.414Z,10.30
2023-01-18T21:18:59.236Z,11.10
2023-01-18T21:21:29.390Z,10.60
2023-01-18T21:23:57.677Z,9.83
2023-01-18T21:26:27.558Z,10.10
2023-01-18T21:28:56.222Z,8.97
2023-01-18T21:31:24.459Z,12.90
2023-01-18T21:33:52.885Z,14.27
2023-01-18T21:36:22.951Z,12.43
2023-01-18T21:38:51.458Z,10.80
2023-01-18T21:41:37.497Z,12.07
2023-01-18T21:44:24.983Z,11.97
2023-01-18T21:46:53.793Z,12.53
2023-01-18T21:50:04.055Z,11.53
2023-01-18T21:52:47.824Z,12.33
2023-01-18T21:55:16.770Z,11.10
2023-01-18T21:57:45.086Z,9.27
2023-01-18T22:00:15.835Z,9.90
2023-01-18T22:02:44.029Z,9.70
2023-01-18T22:05:12.174Z,9.70
2023-01-18T22:07:40.369Z,10.50
2023-01-18T22:10:09.372Z,10.10
2023-01-18T22:12:39.058Z,12.13
2023-01-18T22:15:08.120Z,12.03
2023-01-18T22:17:37.624Z,12.70
2023-01-18T22:20:06.722Z,11.40
2023-01-18T22:22:34.937Z,12.43
2023-01-18T22:25:03.151Z,11.83
2023-01-18T22:27:32.190Z,11.70
2023-01-18T22:30:00.440Z,11.77
2023-01-18T22:32:28.645Z,10.77
2023-01-18T22:34:58.189Z,9.20
2023-01-18T22:37:27.734Z,10.03
2023-01-18T22:39:55.958Z,9.93
2023-01-18T22:42:24.342Z,8.90
2023-01-18T22:44:52.533Z,9.53
2023-01-18T22:47:20.753Z,9.30
2023-01-18T22:49:48.908Z,8.60
2023-01-18T22:52:18.591Z,8.30
2023-01-18T22:54:46.871Z,8.90
2023-01-18T22:57:15.010Z,8.37
2023-01-18T22:59:43.123Z,8.73
2023-01-18T23:02:11.291Z,9.67
2023-01-18T23:04:43.294Z,8.43
2023-01-18T23:07:14.173Z,8.53
2023-01-18T23:09:44.002Z,9.30
2023-01-18T23:12:12.229Z,8.80
2023-01-18T23:14:57.639Z,6.87
2023-01-18T23:17:40.816Z,7.97
2023-01-18T23:20:11.639Z,6.80
2023-01-18T23:22:41.975Z,7.03
2023-01-18T23:25:11.784Z,8.77
2023-01-18T23:27:39.971Z,7.00
2023-01-18T23:30:09.568Z,7.77
2023-01-18T23:32:37.835Z,8.40
2023-01-18T23:35:07.180Z,7.00
2023-01-18T23:37:35.391Z,8.30
2023-01-18T23:40:21.466Z,7.77
2023-01-18T23:43:11.803Z,8.80
2023-01-18T23:45:57.491Z,8.17
2023-01-18T23:48:42.826Z,6.50
2023-01-18T23:51:28.398Z,6.90
2023-01-18T23:54:15.967Z,7.17
2023-01-18T23:56:44.827Z,7.77
2023-01-18T23:59:15.161Z,7.93
